Aeroporto :
LOGIN :

Iscrizione | Disclaimer

   EN    FR    IT 

 










Sommario :    VFR   VFR Marginale   IFR   IFR Intensivo   IFR Molto Intensivo
Visibilità : 
Base nubi : 
>= 8 km
>= 3000ft
5 / 8 km
1000 / 3000 ft
1500m / 5 km
500 / 1000 ft
800 / 1500m
200 / 500 ft
< 800m
< 200 ft
Simboli :   Temporali  Nebbia  Neve Forte  Precipitazioni Forti  Vento > 20 kt
SIGMETs :   Varie  Temporali  Ghiacco  Turbolenza  Onda orograficha  Ceneri Vulcaniche






- Altitudine del aeroporto : 45 ft
- Codice IATA : CEG


EGNR - Hawarden Chester

ULTIMO METAR :
  • 121120Z 32016KT 9999 VCSH SCT014 BKN023 08/06 Q0994

METARs OBSOLETI :
  • 121050Z 26004KT 200V320 9999 8000S VCSH SCT014 BKN023 08/06 Q0993
  • 121020Z 26007KT 240V300 6000 -RA BKN014 BKN023 07/06 Q0993
  • 120950Z 28011G21KT 240V310 9999 -RA SCT012 BKN020 07/05 Q0993
  • 120920Z 28011KT 250V310 9000 -RA SCT012 BKN017 07/05 Q0993
  • 120850Z 28015G25KT 240V310 8000 -RA BKN012 OVC020 06/05 Q0994

TAF AMD TAF EGNR
Valido dal 12 a 09 ore il 12 a 18 ore UTC


120904Z 1209/1218 32015KT 9999 FEW015 BKN030
PROB40
TEMPO 1209/1217 33020G30KT 7000 SHRA BKN012



MetMap, La meteo Aeronautica in un colpo d'occhio ! - Copyright ORBIFLY Dicembre 2007 - Disclaimer

ORBIFLY MET'MAP TEAM :

Programmazione e sviluppo : Alexandra Zaïnal
Concezione e sviluppo : Baudouin d'Aumeries
Co-Programmazione e sviluppo : Marc-Olivier Méhu
Supporto tecnico e logistico : Manuel Goepfert
Aiuto per la traduzione : Arnaldo La Scala

Contatto : metmap@orbifly.com




FONTI E CREDITI :

   NOAA